ADDS METAR Data INFO
IDs: Format: Raw Decoded Include TAF

Data at: 1413 UTC 12 Dec 2017

KHEI 121353Z AUTO 28005KT 10SM CLR M06/M08 A3009 RMK AO2 SLP223 T10611083
KHEI 121253Z AUTO 00000KT 10SM CLR M07/M09 A3013 RMK AO2 SLP236 T10671089
KHEI 121153Z AUTO 00000KT 10SM CLR M06/M08 A3016 RMK AO2 SLP246 I6000 T10611078 11056 21089 58033
KHEI 121053Z AUTO 26004KT 10SM CLR M07/M08 A3020 RMK AO2 SLP259 I1000 T10721083
KHEI 120953Z AUTO 28003KT 10SM CLR M07/M08 A3024 RMK AO2 SLP273 I1000 T10671083
KHEI 120853Z AUTO 29006KT 10SM CLR M07/M08 A3027 RMK AO2 SLP283 I1000 I3000 T10671083 56020
KHEI 120753Z AUTO 29003KT 10SM CLR M08/M10 A3029 RMK AO2 SLP290 I1000 T10831100
KHEI 120653Z AUTO 29005KT 10SM CLR M06/M07 A3031 RMK AO2 SLP296 T10611072 400391072
KHEI 120553Z AUTO 30004KT 10SM CLR M06/M07 A3033 RMK AO2 SLP301 T10561072 10017 21061 56007
KHEI 120525Z AUTO 28006KT 10SM FEW026 M04/M07 A3033 RMK AO2 T10391067
KHEI 120453Z AUTO 28009KT 10SM BKN026 M01/M05 A3033 RMK AO2 SLP299 T10111050
KHEI 120353Z AUTO 28008KT 10SM OVC027 01/M04 A3034 RMK AO2 SLP300 T00111044
KHEI 120253Z AUTO 31011KT 10SM OVC026 02/M04 A3035 RMK AO2 SLP304 T00171039 50000
KHEI 120153Z AUTO 31007KT 10SM OVC026 02/M03 A3035 RMK AO2 SLP302 T00171033
KHEI 120053Z AUTO 32009KT 10SM OVC022 02/M03 A3035 RMK AO2 SLP302 T00171033
KHEI 112353Z AUTO 33013KT 10SM OVC020 02/M03 A3035 RMK AO2 SLP301 T00171028 10028 20017 51010
KHEI 112253Z AUTO 31017KT 10SM OVC018 02/M02 A3035 RMK AO2 SLP299 T00171022
KHEI 112153Z AUTO 32017KT 10SM OVC017 02/M02 A3033 RMK AO2 PK WND 30026/2054 SLP291 T00221022
KHEI 112146Z AUTO 32015KT 10SM OVC016 02/M02 A3032 RMK AO2 PK WND 30026/2054 T00171022
KHEI 112128Z AUTO 31016KT 10SM OVC014 02/M02 A3032 RMK AO2 PK WND 30026/2054 T00221022
KHEI 112053Z AUTO 31021G26KT 10SM OVC015 02/M02 A3032 RMK AO2 PK WND 31028/2002 SLP289 T00171017 51007
KHEI 112045Z AUTO 32017G26KT 10SM BKN012 OVC021 02/M02 A3031 RMK AO2 PK WND 31028/2002 T00171017
KHEI 111953Z AUTO 31020G27KT 10SM OVC016 02/M02 A3031 RMK AO2 PK WND 33028/1936 SLP286 T00221022
KHEI 111927Z AUTO 31022G27KT 10SM OVC016 02/M02 A3030 RMK AO2 PK WND 31027/1922 T00221022
KHEI 111853Z AUTO 31019G25KT 10SM OVC013 02/M02 A3030 RMK AO2 PK WND 32031/1812 SLP281 T00171022
KHEI 111816Z AUTO 32022G31KT 10SM OVC014 02/M02 A3028 RMK AO2 PK WND 32031/1812 T00221022
KHEI 111753Z AUTO 32023G30KT 10SM OVC015 03/M02 A3028 RMK AO2 PK WND 32035/1702 SLP274 60000 T00281022 10033 20017 51027
KHEI 111653Z AUTO 32027G34KT 10SM OVC015 02/M02 A3027 RMK AO2 PK WND 32035/1617 SNB32E41 SLP273 P0000 T00221022
KHEI 111553Z AUTO 32022G34KT 10SM OVC016 02/M02 A3023 RMK AO2 PK WND 32034/1549 SLP260 T00221022
KHEI 111453Z AUTO 32021G29KT 10SM BKN018 02/M03 A3020 RMK AO2 PK WND 32036/1425 SLP248 T00171028 53027
KHEI 111353Z AUTO 32027G35KT 10SM OVC021 02/M03 A3017 RMK AO2 PK WND 32040/1319 SLP238 T00221028
KHEI 111253Z AUTO 32029G41KT 10SM OVC023 03/M03 A3013 RMK AO2 PK WND 33041/1250 SLP221 T00281028
KHEI 111153Z AUTO 31029G37KT 10SM OVC026 03/M03 A3011 RMK AO2 PK WND 31040/1107 SLP216 T00331033 10044 20028 53015
KHEI 111053Z AUTO 31027G36KT 10SM OVC027 03/M03 A3008 RMK AO2 PK WND 31042/1007 SLP203 T00331033
KHEI 111015Z AUTO 31032G42KT 10SM OVC029 04/M04 A3007 RMK AO2 PK WND 31042/1007 T00391039
KHEI 110953Z AUTO 31029G40KT 10SM OVC030 04/M04 A3007 RMK AO2 PK WND 31043/0937 SLP194 T00391039
KHEI 110853Z AUTO 30028G40KT 10SM OVC032 04/M04 A3006 RMK AO2 PK WND 31040/0850 SLP189 T00391044 53009
KHEI 110753Z AUTO 30024G32KT 10SM CLR 03/M06 A3005 RMK AO2 PK WND 30033/0713 SLP185 T00331056
KHEI 110653Z AUTO 29021KT 10SM CLR 04/M08 A3004 RMK AO2 PK WND 30029/0629 SLP181 T00391083 401221011
KHEI 110553Z AUTO 30017KT 10SM CLR 04/M09 A3003 RMK AO2 PK WND 30029/0521 SLP181 T00441089 10056 21011 56002
KHEI 110453Z AUTO 29014KT 10SM CLR 01/M09 A3003 RMK AO2 SLP187 T00111089
KHEI 110353Z AUTO 28013KT 10SM CLR 02/M09 A3002 RMK AO2 SLP186 T00221089
KHEI 110253Z AUTO 29012KT 10SM CLR 03/M09 A3004 RMK AO2 SLP193 T00281089 56011